sensor_id;sensor_type;location;lat;lon;timestamp;pressure;altitude;pressure_sealevel;temperature;humidity
64139;BME280;50435;43.700;-79.318;2023-09-18T00:02:26;99805.32;;;21.87;39.81
64139;BME280;50435;43.700;-79.318;2023-09-18T00:04:54;99808.45;;;21.87;39.86
64139;BME280;50435;43.700;-79.318;2023-09-18T00:07:21;99809.21;;;22.02;39.98
64139;BME280;50435;43.700;-79.318;2023-09-18T00:09:49;99808.56;;;21.80;39.92
64139;BME280;50435;43.700;-79.318;2023-09-18T00:12:16;99805.53;;;22.02;39.92
64139;BME280;50435;43.700;-79.318;2023-09-18T00:14:43;99806.79;;;22.04;39.91
64139;BME280;50435;43.700;-79.318;2023-09-18T00:17:15;99809.85;;;21.95;40.02
64139;BME280;50435;43.700;-79.318;2023-09-18T00:19:42;99816.67;;;21.92;40.09
64139;BME280;50435;43.700;-79.318;2023-09-18T00:22:10;99816.88;;;22.17;40.03
64139;BME280;50435;43.700;-79.318;2023-09-18T00:24:38;99814.26;;;21.87;40.09
64139;BME280;50435;43.700;-79.318;2023-09-18T00:27:06;99818.32;;;21.90;40.00
64139;BME280;50435;43.700;-79.318;2023-09-18T00:29:33;99821.66;;;21.88;40.03
64139;BME280;50435;43.700;-79.318;2023-09-18T00:32:00;99824.57;;;22.14;39.99
64139;BME280;50435;43.700;-79.318;2023-09-18T00:34:28;99820.48;;;21.87;39.99
64139;BME280;50435;43.700;-79.318;2023-09-18T00:36:56;99814.77;;;21.84;39.99
64139;BME280;50435;43.700;-79.318;2023-09-18T00:39:24;99813.81;;;21.86;39.94
64139;BME280;50435;43.700;-79.318;2023-09-18T00:41:51;99813.22;;;21.62;39.92
64139;BME280;50435;43.700;-79.318;2023-09-18T00:44:18;99810.61;;;21.83;39.89
64139;BME280;50435;43.700;-79.318;2023-09-18T00:46:46;99811.64;;;21.59;39.87
64139;BME280;50435;43.700;-79.318;2023-09-18T00:49:14;99813.65;;;22.11;39.83
64139;BME280;50435;43.700;-79.318;2023-09-18T00:51:42;99815.37;;;21.79;39.81
64139;BME280;50435;43.700;-79.318;2023-09-18T00:54:11;99817.87;;;22.01;39.92
64139;BME280;50435;43.700;-79.318;2023-09-18T00:56:39;99820.75;;;21.68;39.98
64139;BME280;50435;43.700;-79.318;2023-09-18T00:59:06;99827.85;;;21.73;39.94
64139;BME280;50435;43.700;-79.318;2023-09-18T01:01:34;99831.90;;;21.47;39.99
64139;BME280;50435;43.700;-79.318;2023-09-18T01:04:02;99838.45;;;21.95;40.01
64139;BME280;50435;43.700;-79.318;2023-09-18T01:06:29;99841.78;;;21.85;40.17
64139;BME280;50435;43.700;-79.318;2023-09-18T01:08:57;99840.41;;;21.88;40.30
64139;BME280;50435;43.700;-79.318;2023-09-18T01:11:31;99843.14;;;21.33;40.29
64139;BME280;50435;43.700;-79.318;2023-09-18T01:14:06;99842.73;;;21.53;40.38
64139;BME280;50435;43.700;-79.318;2023-09-18T01:16:41;99839.17;;;21.45;40.52
64139;BME280;50435;43.700;-79.318;2023-09-18T01:19:12;99837.96;;;21.42;40.60
64139;BME280;50435;43.700;-79.318;2023-09-18T01:21:39;99838.17;;;21.21;40.55
64139;BME280;50435;43.700;-79.318;2023-09-18T01:24:07;99833.64;;;21.73;40.58
64139;BME280;50435;43.700;-79.318;2023-09-18T01:26:34;99832.61;;;21.35;40.69
64139;BME280;50435;43.700;-79.318;2023-09-18T01:29:02;99833.60;;;21.61;40.85
64139;BME280;50435;43.700;-79.318;2023-09-18T01:31:29;99831.65;;;21.57;41.09
64139;BME280;50435;43.700;-79.318;2023-09-18T01:33:57;99831.27;;;21.33;40.76
64139;BME280;50435;43.700;-79.318;2023-09-18T01:36:26;99830.99;;;21.51;41.01
64139;BME280;50435;43.700;-79.318;2023-09-18T01:38:54;99829.11;;;21.52;40.90
64139;BME280;50435;43.700;-79.318;2023-09-18T01:41:22;99831.09;;;21.48;41.16
64139;BME280;50435;43.700;-79.318;2023-09-18T01:43:50;99830.73;;;21.29;40.92
64139;BME280;50435;43.700;-79.318;2023-09-18T01:46:18;99831.53;;;21.20;41.12
64139;BME280;50435;43.700;-79.318;2023-09-18T01:48:46;99831.31;;;21.45;41.12
64139;BME280;50435;43.700;-79.318;2023-09-18T01:51:14;99833.13;;;21.39;41.41
64139;BME280;50435;43.700;-79.318;2023-09-18T01:53:41;99829.20;;;21.47;41.35
64139;BME280;50435;43.700;-79.318;2023-09-18T01:56:09;99824.44;;;21.18;41.40
64139;BME280;50435;43.700;-79.318;2023-09-18T01:58:37;99824.98;;;21.47;41.47
64139;BME280;50435;43.700;-79.318;2023-09-18T02:01:05;99820.15;;;21.15;41.99
64139;BME280;50435;43.700;-79.318;2023-09-18T02:03:32;99818.40;;;21.41;41.64
64139;BME280;50435;43.700;-79.318;2023-09-18T02:06:00;99818.22;;;21.40;41.85
64139;BME280;50435;43.700;-79.318;2023-09-18T02:08:27;99819.18;;;21.35;42.02
64139;BME280;50435;43.700;-79.318;2023-09-18T02:10:55;99820.33;;;21.36;41.99
64139;BME280;50435;43.700;-79.318;2023-09-18T02:13:22;99816.48;;;21.34;41.88
64139;BME280;50435;43.700;-79.318;2023-09-18T02:15:50;99816.57;;;21.24;41.96
64139;BME280;50435;43.700;-79.318;2023-09-18T02:18:17;99820.97;;;21.25;41.91
64139;BME280;50435;43.700;-79.318;2023-09-18T02:20:46;99815.82;;;21.24;42.07
64139;BME280;50435;43.700;-79.318;2023-09-18T02:23:13;99817.61;;;21.23;42.17
64139;BME280;50435;43.700;-79.318;2023-09-18T02:25:40;99817.61;;;21.19;42.25
64139;BME280;50435;43.700;-79.318;2023-09-18T02:28:08;99812.66;;;21.23;42.41
64139;BME280;50435;43.700;-79.318;2023-09-18T02:30:36;99810.85;;;21.13;42.52
64139;BME280;50435;43.700;-79.318;2023-09-18T02:33:04;99812.28;;;21.12;42.73
64139;BME280;50435;43.700;-79.318;2023-09-18T02:35:31;99810.53;;;21.06;42.76
64139;BME280;50435;43.700;-79.318;2023-09-18T02:37:58;99811.45;;;21.27;42.92
64139;BME280;50435;43.700;-79.318;2023-09-18T02:40:26;99810.20;;;21.03;42.66
64139;BME280;50435;43.700;-79.318;2023-09-18T02:42:53;99809.09;;;20.97;42.98
64139;BME280;50435;43.700;-79.318;2023-09-18T02:45:21;99807.44;;;20.95;42.95
64139;BME280;50435;43.700;-79.318;2023-09-18T02:47:48;99810.43;;;20.93;43.14
64139;BME280;50435;43.700;-79.318;2023-09-18T02:50:16;99807.57;;;20.90;43.11
64139;BME280;50435;43.700;-79.318;2023-09-18T02:52:43;99804.75;;;20.87;43.34
64139;BME280;50435;43.700;-79.318;2023-09-18T02:55:11;99806.87;;;21.33;43.19
64139;BME280;50435;43.700;-79.318;2023-09-18T02:57:38;99808.82;;;20.83;43.48
64139;BME280;50435;43.700;-79.318;2023-09-18T03:00:07;99810.72;;;21.09;43.09
64139;BME280;50435;43.700;-79.318;2023-09-18T03:02:34;99810.25;;;21.02;43.14
64139;BME280;50435;43.700;-79.318;2023-09-18T03:05:02;99806.42;;;20.79;43.15
64139;BME280;50435;43.700;-79.318;2023-09-18T03:07:30;99803.71;;;20.99;43.37
64139;BME280;50435;43.700;-79.318;2023-09-18T03:09:57;99803.35;;;20.76;43.21
64139;BME280;50435;43.700;-79.318;2023-09-18T03:12:25;99801.69;;;20.95;43.61
64139;BME280;50435;43.700;-79.318;2023-09-18T03:14:52;99800.50;;;20.70;43.61
64139;BME280;50435;43.700;-79.318;2023-09-18T03:17:20;99799.82;;;20.71;43.42
64139;BME280;50435;43.700;-79.318;2023-09-18T03:19:48;99801.28;;;21.08;43.74
64139;BME280;50435;43.700;-79.318;2023-09-18T03:22:16;99804.86;;;20.64;43.68
64139;BME280;50435;43.700;-79.318;2023-09-18T03:24:43;99806.62;;;20.87;43.51
64139;BME280;50435;43.700;-79.318;2023-09-18T03:27:11;99807.14;;;20.81;43.31
64139;BME280;50435;43.700;-79.318;2023-09-18T03:29:38;99808.18;;;20.59;43.49
64139;BME280;50435;43.700;-79.318;2023-09-18T03:32:06;99808.33;;;20.54;43.39
64139;BME280;50435;43.700;-79.318;2023-09-18T03:34:33;99814.73;;;20.70;43.55
64139;BME280;50435;43.700;-79.318;2023-09-18T03:37:00;99813.18;;;20.51;43.37
64139;BME280;50435;43.700;-79.318;2023-09-18T03:39:28;99813.18;;;20.69;43.56
64139;BME280;50435;43.700;-79.318;2023-09-18T03:41:55;99816.58;;;20.70;43.37
64139;BME280;50435;43.700;-79.318;2023-09-18T03:44:23;99817.28;;;20.72;43.17
64139;BME280;50435;43.700;-79.318;2023-09-18T03:46:50;99815.61;;;21.05;43.10
64139;BME280;50435;43.700;-79.318;2023-09-18T03:49:18;99815.21;;;20.59;42.95
64139;BME280;50435;43.700;-79.318;2023-09-18T03:51:45;99815.52;;;20.75;43.06
64139;BME280;50435;43.700;-79.318;2023-09-18T03:54:13;99817.52;;;20.95;43.10
64139;BME280;50435;43.700;-79.318;2023-09-18T03:56:40;99813.14;;;21.05;42.85
64139;BME280;50435;43.700;-79.318;2023-09-18T03:59:08;99814.67;;;20.90;43.08
64139;BME280;50435;43.700;-79.318;2023-09-18T04:01:35;99810.95;;;20.68;43.11
64139;BME280;50435;43.700;-79.318;2023-09-18T04:04:02;99806.37;;;20.88;43.06
64139;BME280;50435;43.700;-79.318;2023-09-18T04:06:36;99806.57;;;20.81;43.29
64139;BME280;50435;43.700;-79.318;2023-09-18T04:09:04;99805.53;;;20.56;43.21
64139;BME280;50435;43.700;-79.318;2023-09-18T04:11:32;99795.93;;;20.62;43.64
64139;BME280;50435;43.700;-79.318;2023-09-18T04:13:59;99788.92;;;20.47;43.92
64139;BME280;50435;43.700;-79.318;2023-09-18T04:16:27;99784.05;;;20.26;44.01
64139;BME280;50435;43.700;-79.318;2023-09-18T04:18:54;99775.96;;;20.23;44.15
64139;BME280;50435;43.700;-79.318;2023-09-18T04:21:22;99773.01;;;20.54;43.98
64139;BME280;50435;43.700;-79.318;2023-09-18T04:23:50;99768.40;;;20.44;44.15
64139;BME280;50435;43.700;-79.318;2023-09-18T04:26:18;99766.55;;;20.56;43.95
64139;BME280;50435;43.700;-79.318;2023-09-18T04:28:45;99762.88;;;20.45;44.15
64139;BME280;50435;43.700;-79.318;2023-09-18T04:31:13;99763.78;;;20.47;44.00
64139;BME280;50435;43.700;-79.318;2023-09-18T04:33:40;99762.04;;;20.47;43.96
64139;BME280;50435;43.700;-79.318;2023-09-18T04:36:08;99762.69;;;20.51;43.84
64139;BME280;50435;43.700;-79.318;2023-09-18T04:38:35;99761.99;;;20.44;44.00
64139;BME280;50435;43.700;-79.318;2023-09-18T04:41:02;99760.24;;;20.61;43.66
64139;BME280;50435;43.700;-79.318;2023-09-18T04:43:30;99759.57;;;20.30;43.95
64139;BME280;50435;43.700;-79.318;2023-09-18T04:45:57;99762.97;;;20.46;44.00
64139;BME280;50435;43.700;-79.318;2023-09-18T04:48:25;99766.14;;;20.68;44.14
64139;BME280;50435;43.700;-79.318;2023-09-18T04:50:52;99766.63;;;20.48;43.93
64139;BME280;50435;43.700;-79.318;2023-09-18T04:53:19;99768.96;;;20.46;43.88
64139;BME280;50435;43.700;-79.318;2023-09-18T04:55:46;99769.26;;;20.67;44.07
64139;BME280;50435;43.700;-79.318;2023-09-18T04:58:14;99767.57;;;20.40;44.06
64139;BME280;50435;43.700;-79.318;2023-09-18T05:00:41;99766.19;;;20.36;44.04
64139;BME280;50435;43.700;-79.318;2023-09-18T05:03:10;99766.55;;;20.43;44.00
64139;BME280;50435;43.700;-79.318;2023-09-18T05:05:37;99770.89;;;20.42;44.05
64139;BME280;50435;43.700;-79.318;2023-09-18T05:08:07;99769.58;;;20.39;44.20
64139;BME280;50435;43.700;-79.318;2023-09-18T05:10:35;99764.88;;;20.16;44.09
64139;BME280;50435;43.700;-79.318;2023-09-18T05:13:03;99764.28;;;20.34;44.35
64139;BME280;50435;43.700;-79.318;2023-09-18T05:15:31;99762.68;;;20.17;44.65
64139;BME280;50435;43.700;-79.318;2023-09-18T05:17:59;99766.13;;;20.14;44.40
64139;BME280;50435;43.700;-79.318;2023-09-18T05:20:28;99769.39;;;20.39;44.75
64139;BME280;50435;43.700;-79.318;2023-09-18T05:22:56;99773.50;;;20.36;44.65
64139;BME280;50435;43.700;-79.318;2023-09-18T05:25:26;99771.86;;;20.10;44.94
64139;BME280;50435;43.700;-79.318;2023-09-18T05:27:54;99772.35;;;19.99;45.05
64139;BME280;50435;43.700;-79.318;2023-09-18T05:30:24;99770.45;;;20.02;44.91
64139;BME280;50435;43.700;-79.318;2023-09-18T05:32:52;99771.96;;;20.13;45.43
64139;BME280;50435;43.700;-79.318;2023-09-18T05:35:20;99768.15;;;20.37;45.17
64139;BME280;50435;43.700;-79.318;2023-09-18T05:37:49;99770.15;;;19.80;45.55
64139;BME280;50435;43.700;-79.318;2023-09-18T05:40:16;99768.00;;;20.02;45.59
64139;BME280;50435;43.700;-79.318;2023-09-18T05:42:44;99772.82;;;19.77;45.42
64139;BME280;50435;43.700;-79.318;2023-09-18T05:45:12;99776.77;;;19.94;45.69
64139;BME280;50435;43.700;-79.318;2023-09-18T05:47:40;99777.30;;;19.58;45.93
64139;BME280;50435;43.700;-79.318;2023-09-18T05:50:09;99776.92;;;20.17;45.79
64139;BME280;50435;43.700;-79.318;2023-09-18T05:52:37;99780.68;;;19.84;45.92
64139;BME280;50435;43.700;-79.318;2023-09-18T05:55:05;99778.34;;;19.58;46.02
64139;BME280;50435;43.700;-79.318;2023-09-18T05:57:33;99777.16;;;19.71;46.35
64139;BME280;50435;43.700;-79.318;2023-09-18T06:00:02;99778.91;;;19.78;46.13
64139;BME280;50435;43.700;-79.318;2023-09-18T06:02:29;99775.50;;;19.35;46.45
64139;BME280;50435;43.700;-79.318;2023-09-18T06:04:58;99777.32;;;19.71;46.35
64139;BME280;50435;43.700;-79.318;2023-09-18T06:07:25;99772.37;;;19.61;46.54
64139;BME280;50435;43.700;-79.318;2023-09-18T06:09:53;99769.81;;;19.62;46.45
64139;BME280;50435;43.700;-79.318;2023-09-18T06:12:21;99768.43;;;19.75;46.63
64139;BME280;50435;43.700;-79.318;2023-09-18T06:14:48;99767.92;;;19.74;46.86
64139;BME280;50435;43.700;-79.318;2023-09-18T06:17:16;99767.87;;;19.59;46.94
64139;BME280;50435;43.700;-79.318;2023-09-18T06:19:44;99768.80;;;19.63;47.09
64139;BME280;50435;43.700;-79.318;2023-09-18T06:22:12;99765.40;;;19.34;47.09
64139;BME280;50435;43.700;-79.318;2023-09-18T06:24:39;99767.62;;;19.54;47.08
64139;BME280;50435;43.700;-79.318;2023-09-18T06:27:07;99764.98;;;19.38;46.88
64139;BME280;50435;43.700;-79.318;2023-09-18T06:29:35;99766.40;;;19.05;47.17
64139;BME280;50435;43.700;-79.318;2023-09-18T06:32:03;99767.06;;;19.25;47.09
64139;BME280;50435;43.700;-79.318;2023-09-18T06:34:31;99765.22;;;19.13;47.59
64139;BME280;50435;43.700;-79.318;2023-09-18T06:36:58;99762.88;;;19.14;47.59
64139;BME280;50435;43.700;-79.318;2023-09-18T06:39:26;99756.04;;;19.21;47.15
64139;BME280;50435;43.700;-79.318;2023-09-18T06:41:53;99756.27;;;19.35;47.51
64139;BME280;50435;43.700;-79.318;2023-09-18T06:44:20;99755.85;;;19.21;47.71
64139;BME280;50435;43.700;-79.318;2023-09-18T06:46:47;99754.48;;;19.20;47.88
64139;BME280;50435;43.700;-79.318;2023-09-18T06:49:14;99748.95;;;19.18;47.91
64139;BME280;50435;43.700;-79.318;2023-09-18T06:51:41;99750.43;;;19.12;47.94
64139;BME280;50435;43.700;-79.318;2023-09-18T06:54:09;99745.32;;;19.18;47.88
64139;BME280;50435;43.700;-79.318;2023-09-18T06:56:36;99740.84;;;18.79;48.15
64139;BME280;50435;43.700;-79.318;2023-09-18T06:59:03;99737.26;;;19.01;48.12
64139;BME280;50435;43.700;-79.318;2023-09-18T07:01:31;99736.77;;;19.12;47.86
64139;BME280;50435;43.700;-79.318;2023-09-18T07:03:59;99737.98;;;18.92;48.16
64139;BME280;50435;43.700;-79.318;2023-09-18T07:06:26;99739.40;;;18.75;48.01
64139;BME280;50435;43.700;-79.318;2023-09-18T07:08:54;99738.10;;;18.76;48.16
64139;BME280;50435;43.700;-79.318;2023-09-18T07:11:21;99737.02;;;18.92;48.13
64139;BME280;50435;43.700;-79.318;2023-09-18T07:13:49;99734.91;;;18.84;48.25
64139;BME280;50435;43.700;-79.318;2023-09-18T07:16:17;99734.61;;;18.89;48.38
64139;BME280;50435;43.700;-79.318;2023-09-18T07:18:44;99740.16;;;18.81;48.46
64139;BME280;50435;43.700;-79.318;2023-09-18T07:21:11;99741.16;;;18.75;48.53
64139;BME280;50435;43.700;-79.318;2023-09-18T07:23:40;99737.76;;;18.86;48.20
64139;BME280;50435;43.700;-79.318;2023-09-18T07:26:08;99737.01;;;18.72;48.36
64139;BME280;50435;43.700;-79.318;2023-09-18T07:28:36;99737.98;;;18.70;48.46
64139;BME280;50435;43.700;-79.318;2023-09-18T07:31:06;99736.21;;;18.69;48.39
64139;BME280;50435;43.700;-79.318;2023-09-18T07:33:33;99735.42;;;18.68;48.26
64139;BME280;50435;43.700;-79.318;2023-09-18T07:36:01;99735.67;;;18.65;48.33
64139;BME280;50435;43.700;-79.318;2023-09-18T07:38:29;99734.32;;;18.71;48.25
64139;BME280;50435;43.700;-79.318;2023-09-18T07:40:56;99732.53;;;18.57;48.59
64139;BME280;50435;43.700;-79.318;2023-09-18T07:43:24;99734.40;;;18.64;48.00
64139;BME280;50435;43.700;-79.318;2023-09-18T07:45:53;99738.66;;;18.85;48.14
64139;BME280;50435;43.700;-79.318;2023-09-18T07:48:21;99733.86;;;19.05;48.29
64139;BME280;50435;43.700;-79.318;2023-09-18T07:50:49;99731.09;;;18.58;48.43
64139;BME280;50435;43.700;-79.318;2023-09-18T07:53:16;99733.68;;;18.41;48.47
64139;BME280;50435;43.700;-79.318;2023-09-18T07:55:44;99730.48;;;18.51;48.52
64139;BME280;50435;43.700;-79.318;2023-09-18T07:58:11;99724.60;;;18.40;48.70
64139;BME280;50435;43.700;-79.318;2023-09-18T08:00:38;99720.49;;;18.39;48.90
64139;BME280;50435;43.700;-79.318;2023-09-18T08:03:05;99718.66;;;18.44;48.60
64139;BME280;50435;43.700;-79.318;2023-09-18T08:05:33;99719.48;;;18.40;48.56
64139;BME280;50435;43.700;-79.318;2023-09-18T08:08:00;99720.18;;;18.42;48.49
64139;BME280;50435;43.700;-79.318;2023-09-18T08:10:27;99721.04;;;18.71;48.62
64139;BME280;50435;43.700;-79.318;2023-09-18T08:12:54;99720.64;;;18.42;48.33
64139;BME280;50435;43.700;-79.318;2023-09-18T08:15:22;99720.52;;;18.29;48.87
64139;BME280;50435;43.700;-79.318;2023-09-18T08:17:49;99720.36;;;18.56;48.75
64139;BME280;50435;43.700;-79.318;2023-09-18T08:20:17;99722.09;;;18.41;48.76
64139;BME280;50435;43.700;-79.318;2023-09-18T08:22:45;99719.56;;;18.22;48.56
64139;BME280;50435;43.700;-79.318;2023-09-18T08:25:13;99716.84;;;18.28;48.71
64139;BME280;50435;43.700;-79.318;2023-09-18T08:27:41;99713.86;;;18.24;48.90
64139;BME280;50435;43.700;-79.318;2023-09-18T08:30:10;99713.12;;;18.74;48.79
64139;BME280;50435;43.700;-79.318;2023-09-18T08:32:38;99710.97;;;18.36;49.15
64139;BME280;50435;43.700;-79.318;2023-09-18T08:35:05;99709.83;;;18.30;48.90
64139;BME280;50435;43.700;-79.318;2023-09-18T08:37:34;99709.88;;;18.08;49.29
64139;BME280;50435;43.700;-79.318;2023-09-18T08:40:01;99710.69;;;18.77;48.93
64139;BME280;50435;43.700;-79.318;2023-09-18T08:42:30;99708.21;;;18.14;49.12
64139;BME280;50435;43.700;-79.318;2023-09-18T08:45:02;99706.62;;;18.63;49.10
64139;BME280;50435;43.700;-79.318;2023-09-18T08:47:33;99704.75;;;18.71;48.85
64139;BME280;50435;43.700;-79.318;2023-09-18T08:50:02;99703.94;;;18.78;48.80
64139;BME280;50435;43.700;-79.318;2023-09-18T08:52:30;99703.91;;;18.51;48.79
64139;BME280;50435;43.700;-79.318;2023-09-18T08:54:58;99702.11;;;18.27;48.71
64139;BME280;50435;43.700;-79.318;2023-09-18T08:57:27;99699.16;;;18.56;48.48
64139;BME280;50435;43.700;-79.318;2023-09-18T08:59:57;99702.00;;;18.09;49.10
64139;BME280;50435;43.700;-79.318;2023-09-18T09:02:24;99706.68;;;18.42;48.68
64139;BME280;50435;43.700;-79.318;2023-09-18T09:04:52;99710.34;;;18.20;48.89
64139;BME280;50435;43.700;-79.318;2023-09-18T09:07:19;99713.62;;;18.08;49.11
64139;BME280;50435;43.700;-79.318;2023-09-18T09:09:47;99714.02;;;17.99;49.29
64139;BME280;50435;43.700;-79.318;2023-09-18T09:12:14;99711.37;;;18.61;49.00
64139;BME280;50435;43.700;-79.318;2023-09-18T09:15:02;99711.43;;;18.22;49.34
64139;BME280;50435;43.700;-79.318;2023-09-18T09:17:30;99712.36;;;18.01;49.22
64139;BME280;50435;43.700;-79.318;2023-09-18T09:20:08;99715.04;;;18.47;49.18
64139;BME280;50435;43.700;-79.318;2023-09-18T09:22:37;99713.99;;;18.09;48.85
64139;BME280;50435;43.700;-79.318;2023-09-18T09:25:05;99709.88;;;18.45;48.63
64139;BME280;50435;43.700;-79.318;2023-09-18T09:27:42;99707.75;;;18.67;48.64
64139;BME280;50435;43.700;-79.318;2023-09-18T09:30:10;99706.44;;;18.62;48.70
64139;BME280;50435;43.700;-79.318;2023-09-18T09:32:38;99705.78;;;18.04;48.76
64139;BME280;50435;43.700;-79.318;2023-09-18T09:35:05;99707.18;;;18.08;48.94
64139;BME280;50435;43.700;-79.318;2023-09-18T09:37:34;99712.08;;;18.07;48.91
64139;BME280;50435;43.700;-79.318;2023-09-18T09:40:04;99714.78;;;18.36;48.72
64139;BME280;50435;43.700;-79.318;2023-09-18T09:42:38;99714.07;;;17.99;48.97
64139;BME280;50435;43.700;-79.318;2023-09-18T09:45:11;99713.56;;;18.31;49.23
64139;BME280;50435;43.700;-79.318;2023-09-18T09:47:39;99717.76;;;18.17;49.08
64139;BME280;50435;43.700;-79.318;2023-09-18T09:50:08;99720.29;;;17.98;49.00
64139;BME280;50435;43.700;-79.318;2023-09-18T09:52:40;99718.08;;;18.09;49.35
64139;BME280;50435;43.700;-79.318;2023-09-18T09:55:18;99715.50;;;18.14;49.17
64139;BME280;50435;43.700;-79.318;2023-09-18T09:57:48;99713.48;;;18.33;49.17
64139;BME280;50435;43.700;-79.318;2023-09-18T10:00:17;99717.62;;;18.38;49.04
64139;BME280;50435;43.700;-79.318;2023-09-18T10:02:45;99721.28;;;18.18;49.12
64139;BME280;50435;43.700;-79.318;2023-09-18T10:05:12;99723.26;;;18.22;49.39
64139;BME280;50435;43.700;-79.318;2023-09-18T10:07:40;99723.59;;;18.27;49.26
64139;BME280;50435;43.700;-79.318;2023-09-18T10:10:08;99722.32;;;18.31;49.16
64139;BME280;50435;43.700;-79.318;2023-09-18T10:12:37;99724.58;;;18.05;49.30
64139;BME280;50435;43.700;-79.318;2023-09-18T10:15:08;99728.28;;;18.17;49.58
64139;BME280;50435;43.700;-79.318;2023-09-18T10:17:37;99731.65;;;17.97;49.53
64139;BME280;50435;43.700;-79.318;2023-09-18T10:20:12;99734.59;;;18.09;49.67
64139;BME280;50435;43.700;-79.318;2023-09-18T10:22:45;99741.45;;;17.81;49.71
64139;BME280;50435;43.700;-79.318;2023-09-18T10:25:17;99742.39;;;17.53;49.82
64139;BME280;50435;43.700;-79.318;2023-09-18T10:27:47;99738.56;;;17.93;49.39
64139;BME280;50435;43.700;-79.318;2023-09-18T10:30:16;99742.24;;;18.18;49.26
64139;BME280;50435;43.700;-79.318;2023-09-18T10:32:45;99737.85;;;17.97;49.38
64139;BME280;50435;43.700;-79.318;2023-09-18T10:35:13;99740.26;;;18.06;49.58
64139;BME280;50435;43.700;-79.318;2023-09-18T10:37:41;99740.59;;;17.87;49.46
64139;BME280;50435;43.700;-79.318;2023-09-18T10:40:10;99742.02;;;17.86;49.46
64139;BME280;50435;43.700;-79.318;2023-09-18T10:42:40;99744.43;;;17.92;49.65
64139;BME280;50435;43.700;-79.318;2023-09-18T10:45:09;99746.91;;;17.93;49.73
64139;BME280;50435;43.700;-79.318;2023-09-18T10:47:38;99747.43;;;17.97;49.54
64139;BME280;50435;43.700;-79.318;2023-09-18T10:50:08;99744.95;;;17.86;49.83
64139;BME280;50435;43.700;-79.318;2023-09-18T10:52:36;99749.68;;;17.93;49.54
64139;BME280;50435;43.700;-79.318;2023-09-18T10:55:12;99751.38;;;17.78;49.93
64139;BME280;50435;43.700;-79.318;2023-09-18T10:57:50;99754.31;;;17.78;49.78
64139;BME280;50435;43.700;-79.318;2023-09-18T11:00:18;99757.61;;;17.71;49.85
64139;BME280;50435;43.700;-79.318;2023-09-18T11:02:46;99757.79;;;17.71;49.85
64139;BME280;50435;43.700;-79.318;2023-09-18T11:05:14;99761.26;;;17.58;50.06
64139;BME280;50435;43.700;-79.318;2023-09-18T11:07:41;99765.53;;;17.75;50.15
64139;BME280;50435;43.700;-79.318;2023-09-18T11:10:25;99768.29;;;17.73;49.62
64139;BME280;50435;43.700;-79.318;2023-09-18T11:12:53;99772.62;;;17.48;50.24
64139;BME280;50435;43.700;-79.318;2023-09-18T11:15:32;99774.71;;;17.38;50.00
64139;BME280;50435;43.700;-79.318;2023-09-18T11:18:02;99775.51;;;17.53;50.09
64139;BME280;50435;43.700;-79.318;2023-09-18T11:20:29;99776.77;;;17.39;50.28
64139;BME280;50435;43.700;-79.318;2023-09-18T11:22:59;99778.22;;;17.36;50.50
64139;BME280;50435;43.700;-79.318;2023-09-18T11:25:34;99783.85;;;17.37;50.40
64139;BME280;50435;43.700;-79.318;2023-09-18T11:28:03;99782.83;;;17.21;50.70
64139;BME280;50435;43.700;-79.318;2023-09-18T11:30:33;99784.03;;;17.28;50.66
64139;BME280;50435;43.700;-79.318;2023-09-18T11:33:02;99786.72;;;17.39;50.42
64139;BME280;50435;43.700;-79.318;2023-09-18T11:35:30;99790.86;;;17.39;50.24
64139;BME280;50435;43.700;-79.318;2023-09-18T11:38:07;99790.33;;;17.26;50.49
64139;BME280;50435;43.700;-79.318;2023-09-18T11:40:37;99791.54;;;17.48;50.12
64139;BME280;50435;43.700;-79.318;2023-09-18T11:43:22;99794.34;;;17.27;50.45
64139;BME280;50435;43.700;-79.318;2023-09-18T11:45:50;99796.32;;;17.33;50.36
64139;BME280;50435;43.700;-79.318;2023-09-18T11:48:19;99799.26;;;17.31;50.51
64139;BME280;50435;43.700;-79.318;2023-09-18T11:50:47;99802.28;;;17.27;50.48
64139;BME280;50435;43.700;-79.318;2023-09-18T11:53:16;99804.12;;;17.29;50.45
64139;BME280;50435;43.700;-79.318;2023-09-18T11:55:44;99803.06;;;17.35;50.30
64139;BME280;50435;43.700;-79.318;2023-09-18T11:58:12;99802.77;;;17.16;50.83
64139;BME280;50435;43.700;-79.318;2023-09-18T12:00:39;99803.49;;;17.32;50.40
64139;BME280;50435;43.700;-79.318;2023-09-18T12:03:14;99806.70;;;17.20;50.71
64139;BME280;50435;43.700;-79.318;2023-09-18T12:05:42;99805.31;;;17.23;50.62
64139;BME280;50435;43.700;-79.318;2023-09-18T12:08:11;99807.17;;;17.30;50.32
64139;BME280;50435;43.700;-79.318;2023-09-18T12:10:39;99809.75;;;17.16;50.21
64139;BME280;50435;43.700;-79.318;2023-09-18T12:13:06;99804.93;;;17.41;50.12
64139;BME280;50435;43.700;-79.318;2023-09-18T12:15:34;99809.48;;;17.26;50.50
64139;BME280;50435;43.700;-79.318;2023-09-18T12:18:06;99807.33;;;17.34;50.31
64139;BME280;50435;43.700;-79.318;2023-09-18T12:20:34;99808.97;;;17.44;50.13
64139;BME280;50435;43.700;-79.318;2023-09-18T12:23:01;99804.44;;;17.58;49.94
64139;BME280;50435;43.700;-79.318;2023-09-18T12:25:28;99800.33;;;17.55;49.97
64139;BME280;50435;43.700;-79.318;2023-09-18T12:27:56;99802.50;;;17.31;49.94
64139;BME280;50435;43.700;-79.318;2023-09-18T12:30:24;99801.88;;;17.53;49.88
64139;BME280;50435;43.700;-79.318;2023-09-18T12:32:52;99799.20;;;17.40;50.17
64139;BME280;50435;43.700;-79.318;2023-09-18T12:35:19;99797.08;;;17.54;49.77
64139;BME280;50435;43.700;-79.318;2023-09-18T12:37:47;99795.45;;;17.65;49.66
64139;BME280;50435;43.700;-79.318;2023-09-18T12:40:27;99794.70;;;17.36;49.72
64139;BME280;50435;43.700;-79.318;2023-09-18T12:42:56;99793.39;;;17.70;49.52
64139;BME280;50435;43.700;-79.318;2023-09-18T12:45:24;99793.47;;;17.67;49.64
64139;BME280;50435;43.700;-79.318;2023-09-18T12:47:53;99791.96;;;17.70;49.49